Portada
METAR-TAF:

METAR-TAF

Aeroports :

Aeroport de Tolosa-Blagnac

Tolosa, França

latitud: 43-38N, longitud: 001-22E, altitud: 152 m

Observació

L'informe es va fer fa 15 minuts, a les 15:00 UTC
Vent 8 kt del Est
Temperatura 10°C
Humitat 62%
Pressió 1022 hPa
Visibilitat 10 km o més
sense núvols per sota de 1500 mi sense presència de cumulonimbus.

METAR: LFBO 181500Z AUTO 09008KT CAVOK 10/03 Q1022 NOSIG

Hora: 16:15 (15:15 UTC)

Pronòstic

L'informe es va fer fa 4 hores i 15 minuts, a les 11:00 UTC
Pronòstic vàlid del 18 a les 12 UTC al 19 a les 18 UTC
Vent 4 kt del Est
Visibilitat 10 km o més
sense núvols per sota de 1500 mi sense presència de cumulonimbus.
Temporalment
l' 18 a les 18 UTC al 19 a les 03 UTC
Escasses núvols a una alçada de 3000 ft, Cumulus congestus.
Evolucionant progressivament
l' 19 a les 07 UTC al 19 a les 09 UTC
Vent 10 kt del Nord/Nord-Oest

TAF: LFBO 181100Z 1812/1918 09004KT CAVOK TEMPO 1818/1903 FEW030TCU BECMG 1907/1909 34010KT

Observacions i pronòstics meteorològics de més de 4000 aeroports (METAR i TAF).

Les estacions disponibles són els punts grocs i vermells al mapa.

Posi el ratolí al punt desitjat per veure el nom de l'estació.

Feu clic per veure les observacions i els pronòstics meteorològics.

Per canviar el mapa: feu clic els botons verds amb una creu de color negre per apropar; al botó verd amb un guió per allunyar la imatge; o en les fletxes verdes per a mapes adjacents.


METAR-TAF: